Time;durP1;ratioP1;P1;durP2;ratioP2;P2;SDS_P1;SDS_P2;PMS_P1;PMS_P2;Temp;Humidity;BMP_temperature;BMP_pressure;BME280_temperature;BME280_humidity;BME280_pressure;Samples;Min_cycle;Max_cycle;Signal;HPM_P1;HPM_P2
2022/05/01 00:02:46;;;;;;;172.68;60.10;;;7.50;99.90;;;;;;5009320;28;20139;-85
2022/05/01 00:05:36;;;;;;;175.30;60.80;;;7.50;99.90;;;;;;5020254;28;20050;-85
2022/05/01 00:08:24;;;;;;;163.93;58.97;;;7.40;99.90;;;;;;5006619;28;20050;-85
2022/05/01 00:11:12;;;;;;;153.25;57.40;;;7.40;99.90;;;;;;5003984;28;20077;-85
2022/05/01 00:14:00;;;;;;;154.15;56.25;;;7.40;99.90;;;;;;5013204;28;20467;-85
2022/05/01 00:16:49;;;;;;;160.20;59.10;;;7.40;99.90;;;;;;5015271;28;20092;-86
2022/05/01 00:19:37;;;;;;;146.45;56.40;;;7.40;99.90;;;;;;5013463;28;20103;-86
2022/05/01 00:22:42;;;;;;;154.30;59.28;;;7.50;99.90;;;;;;5000311;28;20045;-84
2022/05/01 00:25:30;;;;;;;145.07;57.42;;;7.60;99.90;;;;;;5002683;28;20054;-86
2022/05/01 00:28:18;;;;;;;159.77;58.65;;;7.60;99.90;;;;;;5001926;28;20052;-85
2022/05/01 00:31:07;;;;;;;151.63;57.70;;;7.60;99.90;;;;;;5010604;28;20049;-85
2022/05/01 00:37:00;;;;;;;155.48;58.75;;;7.60;99.90;;;;;;5015128;28;20065;-86
2022/05/01 00:39:52;;;;;;;151.02;58.03;;;7.60;99.90;;;;;;5011166;28;20057;-85
2022/05/01 00:42:42;;;;;;;141.63;55.70;;;7.50;99.90;;;;;;5013432;28;20049;-85
2022/05/01 00:45:31;;;;;;;149.23;57.53;;;7.50;99.90;;;;;;5014003;28;20183;-88
2022/05/01 00:48:19;;;;;;;149.45;56.95;;;7.60;99.90;;;;;;5003007;28;20045;-86
2022/05/01 00:51:11;;;;;;;143.35;56.45;;;7.50;99.90;;;;;;5008104;28;20070;-86
2022/05/01 00:53:59;;;;;;;144.13;57.25;;;7.50;99.90;;;;;;5013629;28;20089;-85
2022/05/01 00:56:55;;;;;;;146.27;56.78;;;7.50;99.90;;;;;;5004645;28;20158;-86
2022/05/01 00:59:43;;;;;;;141.85;56.42;;;7.50;99.90;;;;;;5003641;28;20456;-86
2022/05/01 01:02:32;;;;;;;141.93;55.53;;;7.50;99.90;;;;;;5010303;28;20526;-84
2022/05/01 01:05:19;;;;;;;138.25;55.20;;;7.50;99.90;;;;;;5005586;28;20052;-84
2022/05/01 01:08:07;;;;;;;129.45;53.53;;;7.40;99.90;;;;;;5015709;28;20065;-86
2022/05/01 01:10:55;;;;;;;132.60;52.83;;;7.50;99.90;;;;;;5009410;28;20054;-84
2022/05/01 01:13:43;;;;;;;133.13;53.10;;;7.50;99.90;;;;;;5011655;28;20057;-85
2022/05/01 01:16:30;;;;;;;129.05;52.25;;;7.40;99.90;;;;;;4986089;28;20052;-84
2022/05/01 01:19:20;;;;;;;130.90;52.22;;;7.40;99.90;;;;;;4999500;28;20498;-85
2022/05/01 01:22:09;;;;;;;131.95;51.90;;;7.40;99.90;;;;;;5014078;28;20096;-85
2022/05/01 01:24:56;;;;;;;138.20;54.42;;;7.30;99.90;;;;;;5008797;28;20505;-86
2022/05/01 01:27:43;;;;;;;134.10;52.65;;;7.30;99.90;;;;;;5014940;28;20043;-85
2022/05/01 01:33:38;;;;;;;136.50;53.05;;;7.20;99.90;;;;;;5010803;28;20054;-86
2022/05/01 01:36:28;;;;;;;128.80;50.13;;;7.10;99.90;;;;;;4995883;28;20086;-85
2022/05/01 01:39:18;;;;;;;133.70;50.28;;;7.00;99.90;;;;;;4999378;28;20061;-85
2022/05/01 01:42:10;;;;;;;126.10;51.60;;;7.00;99.90;;;;;;4998889;28;20064;-84
2022/05/01 01:44:59;;;;;;;123.18;48.28;;;6.90;99.90;;;;;;5000026;28;20046;-84
2022/05/01 01:47:49;;;;;;;125.70;49.58;;;6.80;99.90;;;;;;5007880;28;20046;-84
2022/05/01 01:50:36;;;;;;;139.52;51.10;;;6.80;99.90;;;;;;5006102;28;20054;-85
2022/05/01 01:53:24;;;;;;;138.70;52.13;;;6.60;99.90;;;;;;5011861;28;20125;-85
2022/05/01 01:56:14;;;;;;;139.75;54.33;;;6.60;99.90;;;;;;5012434;28;21701;-84
2022/05/01 01:59:01;;;;;;;139.20;54.22;;;6.50;99.90;;;;;;4986473;28;20050;-84
2022/05/01 02:01:48;;;;;;;147.52;54.92;;;6.60;99.90;;;;;;4999378;28;20104;-84
2022/05/01 02:04:41;;;;;;;155.88;58.13;;;6.60;99.90;;;;;;5007971;28;20053;-84
2022/05/01 02:07:30;;;;;;;150.68;54.70;;;6.60;99.90;;;;;;4996256;28;20041;-84
2022/05/01 02:10:26;;;;;;;146.13;55.28;;;6.60;99.90;;;;;;5013091;28;20050;-84
2022/05/01 02:13:17;;;;;;;137.38;53.38;;;6.50;99.90;;;;;;5003177;28;20065;-85
2022/05/01 02:16:04;;;;;;;164.02;55.67;;;6.50;99.90;;;;;;5008785;28;21102;-84
2022/05/01 02:18:54;;;;;;;151.35;56.85;;;6.60;99.90;;;;;;5014438;28;20360;-84
2022/05/01 02:21:44;;;;;;;150.75;55.78;;;6.70;99.90;;;;;;4994011;28;20467;-84
2022/05/01 02:24:33;;;;;;;144.15;54.45;;;6.70;99.90;;;;;;4998387;28;20448;-85
2022/05/01 02:27:21;;;;;;;148.95;56.55;;;6.70;99.90;;;;;;4981701;28;20065;-86
2022/05/01 02:30:09;;;;;;;149.85;55.90;;;6.70;99.90;;;;;;5009620;28;20069;-84
2022/05/01 02:32:58;;;;;;;158.88;55.53;;;6.80;99.90;;;;;;5017652;28;20041;-85
2022/05/01 02:35:46;;;;;;;166.73;58.20;;;6.80;99.90;;;;;;5020114;28;20041;-85
2022/05/01 02:38:34;;;;;;;169.68;58.33;;;6.80;99.90;;;;;;5018611;28;20060;-84
2022/05/01 02:41:24;;;;;;;168.52;62.08;;;6.90;99.90;;;;;;5011656;28;20093;-85
2022/05/01 02:44:11;;;;;;;160.57;57.88;;;6.90;99.90;;;;;;5008273;28;20046;-85
2022/05/01 02:46:58;;;;;;;158.07;57.65;;;7.00;99.90;;;;;;4999648;28;20250;-85
2022/05/01 02:49:46;;;;;;;169.50;58.72;;;7.00;99.90;;;;;;4997149;28;20059;-85
2022/05/01 02:52:36;;;;;;;151.40;55.85;;;7.00;99.90;;;;;;5010645;28;20053;-85
2022/05/01 02:55:26;;;;;;;159.02;55.72;;;7.10;99.90;;;;;;5009104;28;20060;-85
2022/05/01 02:58:13;;;;;;;157.60;55.90;;;7.10;99.90;;;;;;5006070;28;20086;-85
2022/05/01 03:01:03;;;;;;;160.60;57.60;;;7.10;99.90;;;;;;4988092;28;20112;-84
2022/05/01 03:03:53;;;;;;;155.93;55.42;;;7.10;99.90;;;;;;5011541;28;20038;-84
2022/05/01 03:06:40;;;;;;;145.57;51.67;;;7.10;99.90;;;;;;5011099;28;20070;-85
2022/05/01 03:09:27;;;;;;;145.43;55.20;;;7.10;99.90;;;;;;4996593;28;20092;-85
2022/05/01 03:12:18;;;;;;;143.68;55.30;;;7.10;99.90;;;;;;4993705;28;20054;-85
2022/05/01 03:15:09;;;;;;;148.88;55.65;;;7.10;99.90;;;;;;5006271;28;20046;-85
2022/05/01 03:24:10;;;;;;;150.95;55.80;;;7.20;99.90;;;;;;5002489;28;20078;-85
2022/05/01 03:26:57;;;;;;;135.60;54.40;;;7.20;99.90;;;;;;5008796;28;20105;-86
2022/05/01 03:30:15;;;;;;;137.50;53.72;;;7.20;99.90;;;;;;5007889;28;20049;-85
2022/05/01 03:32:55;;;;;;;124.25;50.88;;;7.20;99.90;;;;;;5011088;28;20093;-85
2022/05/01 03:35:44;;;;;;;129.43;52.63;;;7.30;99.90;;;;;;5013032;28;20045;-86
2022/05/01 03:38:31;;;;;;;129.75;53.28;;;7.30;99.90;;;;;;5002069;28;20115;-85
2022/05/01 03:41:19;;;;;;;122.15;51.88;;;7.30;99.90;;;;;;5008749;28;20188;-85
2022/05/01 03:44:07;;;;;;;128.50;52.13;;;7.40;99.90;;;;;;5003844;28;20053;-85
2022/05/01 03:46:54;;;;;;;125.75;51.30;;;7.40;99.90;;;;;;5015060;28;20046;-84
2022/05/01 03:49:42;;;;;;;118.43;51.38;;;7.40;99.90;;;;;;5014052;28;20049;-84
2022/05/01 03:52:29;;;;;;;111.82;48.85;;;7.40;99.90;;;;;;5016177;28;20458;-84
2022/05/01 03:55:20;;;;;;;115.80;48.15;;;7.40;99.90;;;;;;5009586;28;20125;-84
2022/05/01 03:58:10;;;;;;;105.60;48.97;;;7.40;99.90;;;;;;5011330;28;20057;-85
2022/05/01 04:00:58;;;;;;;116.03;50.33;;;7.40;99.90;;;;;;5015817;28;20053;-85
2022/05/01 04:03:48;;;;;;;104.43;46.05;;;7.50;99.90;;;;;;5012988;28;20040;-84
2022/05/01 04:06:41;;;;;;;101.18;46.03;;;7.40;99.90;;;;;;4998130;28;20093;-86
2022/05/01 04:09:29;;;;;;;98.40;46.58;;;7.40;99.90;;;;;;4999348;28;20042;-85
2022/05/01 04:12:19;;;;;;;95.68;46.05;;;7.40;99.90;;;;;;5010646;28;20053;-85
2022/05/01 04:15:09;;;;;;;111.47;47.63;;;7.40;99.90;;;;;;5014794;28;20073;-85
2022/05/01 04:18:02;;;;;;;99.63;45.20;;;7.40;99.90;;;;;;4983293;28;20145;-86
2022/05/01 04:20:51;;;;;;;107.38;46.90;;;7.40;99.90;;;;;;5008253;28;20061;-85
2022/05/01 04:23:38;;;;;;;99.65;46.92;;;7.40;99.90;;;;;;5009281;28;20049;-85
2022/05/01 04:26:26;;;;;;;99.63;47.80;;;7.40;99.90;;;;;;5011804;28;20125;-85
2022/05/01 04:32:22;;;;;;;96.40;44.67;;;7.40;99.90;;;;;;5004714;28;20157;-86
2022/05/01 04:35:09;;;;;;;113.78;47.95;;;7.40;99.90;;;;;;5014390;28;20084;-85
2022/05/01 04:38:16;;;;;;;104.38;47.05;;;7.40;99.90;;;;;;5010911;28;20475;-84
2022/05/01 04:41:04;;;;;;;107.25;46.70;;;7.40;99.90;;;;;;5005467;28;20143;-86
2022/05/01 04:43:55;;;;;;;112.00;47.45;;;7.40;99.90;;;;;;5009675;28;20070;-85
2022/05/01 04:46:47;;;;;;;111.47;47.97;;;7.40;99.90;;;;;;4994339;28;20493;-84
2022/05/01 04:49:35;;;;;;;109.22;48.67;;;7.40;99.90;;;;;;4999491;28;20086;-86
2022/05/01 04:52:22;;;;;;;108.40;48.17;;;7.40;99.90;;;;;;5008583;28;20100;-84
2022/05/01 04:55:12;;;;;;;103.90;48.22;;;7.50;99.90;;;;;;5015779;28;20387;-84
2022/05/01 04:58:01;;;;;;;108.05;47.13;;;7.50;99.90;;;;;;5009262;28;20065;-84
2022/05/01 05:00:51;;;;;;;95.68;44.63;;;7.60;99.90;;;;;;5011386;28;20586;-85
2022/05/01 05:03:38;;;;;;;107.38;48.13;;;7.60;99.90;;;;;;5010617;28;20483;-84
2022/05/01 05:06:28;;;;;;;114.20;49.00;;;7.60;99.90;;;;;;5011626;28;20482;-85
2022/05/01 05:12:32;;;;;;;95.85;46.22;;;7.80;99.90;;;;;;4997609;28;20059;-86
2022/05/01 05:15:21;;;;;;;89.53;44.85;;;7.90;99.90;;;;;;5004369;28;20384;-85
2022/05/01 05:18:08;;;;;;;94.40;44.08;;;7.90;99.90;;;;;;5011989;28;20049;-87
2022/05/01 05:20:56;;;;;;;91.25;45.55;;;7.70;99.90;;;;;;5009316;28;20061;-83
2022/05/01 05:23:46;;;;;;;97.25;46.28;;;7.60;99.90;;;;;;5011782;28;20057;-83
2022/05/01 05:26:35;;;;;;;101.40;46.05;;;7.60;99.90;;;;;;4995194;28;20054;-85
2022/05/01 05:29:25;;;;;;;102.72;47.40;;;7.60;99.90;;;;;;5003691;28;20073;-85
2022/05/01 05:32:12;;;;;;;99.53;45.00;;;7.70;99.90;;;;;;5001245;28;20135;-85
2022/05/01 05:34:59;;;;;;;91.18;46.45;;;7.80;99.90;;;;;;5009056;28;20065;-85
2022/05/01 05:37:46;;;;;;;101.82;45.13;;;7.80;99.90;;;;;;5011244;28;20124;-84
2022/05/01 05:40:36;;;;;;;95.55;45.40;;;7.90;99.90;;;;;;4994374;28;20054;-83
2022/05/01 05:43:23;;;;;;;105.20;46.42;;;7.90;99.90;;;;;;5007408;28;20049;-84
2022/05/01 05:46:10;;;;;;;93.00;44.85;;;8.10;99.90;;;;;;5008515;28;20381;-84
2022/05/01 05:48:58;;;;;;;91.05;45.53;;;8.20;99.90;;;;;;4994280;28;20113;-86
2022/05/01 05:51:48;;;;;;;92.90;46.40;;;8.20;99.90;;;;;;5012792;28;20115;-85
2022/05/01 05:54:35;;;;;;;81.22;41.83;;;8.30;99.90;;;;;;4986670;28;20391;-84
2022/05/01 05:57:22;;;;;;;84.22;42.03;;;8.30;99.90;;;;;;4997971;28;20060;-85
2022/05/01 06:00:10;;;;;;;82.93;41.22;;;8.30;99.90;;;;;;4987989;28;20130;-84
2022/05/01 06:02:57;;;;;;;81.70;41.75;;;8.40;99.90;;;;;;5011316;28;20115;-84
2022/05/01 06:05:47;;;;;;;85.32;42.42;;;8.40;99.90;;;;;;4999589;28;20393;-84
2022/05/01 06:08:35;;;;;;;84.95;42.22;;;8.30;99.90;;;;;;5005273;28;20082;-84
2022/05/01 06:11:24;;;;;;;93.07;43.20;;;8.40;99.90;;;;;;5014171;28;20189;-84
2022/05/01 06:14:15;;;;;;;82.22;40.92;;;8.40;99.90;;;;;;5008194;28;20066;-85
2022/05/01 06:17:02;;;;;;;83.30;41.45;;;8.40;99.90;;;;;;5007269;28;20145;-85
2022/05/01 06:19:52;;;;;;;81.65;42.25;;;8.50;99.90;;;;;;5009792;28;20081;-85
2022/05/01 06:22:41;;;;;;;85.57;41.92;;;8.50;99.90;;;;;;5010301;28;20376;-85
2022/05/01 06:25:28;;;;;;;86.55;42.40;;;8.50;99.90;;;;;;4993578;28;20062;-84
2022/05/01 06:28:16;;;;;;;79.80;41.58;;;8.40;99.90;;;;;;5013983;28;20073;-86
2022/05/01 06:31:04;;;;;;;85.47;42.60;;;8.40;99.90;;;;;;5002740;28;20058;-85
2022/05/01 06:33:54;;;;;;;85.43;44.13;;;8.40;99.90;;;;;;5004387;28;20144;-86
2022/05/01 06:36:42;;;;;;;91.88;44.53;;;8.30;99.90;;;;;;5002016;28;20544;-84
2022/05/01 06:39:42;;;;;;;97.10;42.85;;;8.20;99.90;;;;;;5011151;28;20493;-84
2022/05/01 06:42:49;;;;;;;86.78;43.20;;;8.30;99.90;;;;;;4994071;28;20137;-85
2022/05/01 06:45:49;;;;;;;87.32;42.38;;;8.30;99.90;;;;;;5006016;28;20447;-86
2022/05/01 06:48:38;;;;;;;82.22;42.47;;;8.40;99.90;;;;;;5009138;28;20137;-86
2022/05/01 06:51:25;;;;;;;78.85;38.97;;;8.40;99.90;;;;;;5012737;28;20064;-86
2022/05/01 06:54:13;;;;;;;84.32;41.58;;;8.40;99.90;;;;;;5005506;28;20057;-86
2022/05/01 06:57:02;;;;;;;99.03;51.25;;;8.50;99.90;;;;;;5011507;28;20434;-86
2022/05/01 06:59:49;;;;;;;77.65;39.60;;;8.50;99.90;;;;;;5001331;28;20046;-85
2022/05/01 07:02:43;;;;;;;73.45;38.80;;;8.60;99.90;;;;;;4994193;28;20042;-85
2022/05/01 07:05:31;;;;;;;74.47;38.15;;;8.70;99.90;;;;;;5002848;28;20038;-86
2022/05/01 07:08:19;;;;;;;69.97;38.17;;;8.70;99.90;;;;;;5012220;28;20073;-85
2022/05/01 07:11:06;;;;;;;72.05;38.83;;;8.70;99.90;;;;;;5008566;28;20056;-84
2022/05/01 07:13:53;;;;;;;70.55;37.22;;;8.80;99.90;;;;;;5007263;28;20333;-84
2022/05/01 07:16:40;;;;;;;65.78;37.17;;;8.90;99.90;;;;;;5011624;28;20054;-83
2022/05/01 07:19:30;;;;;;;64.70;35.17;;;8.90;99.90;;;;;;5014359;28;20057;-83
2022/05/01 07:22:18;;;;;;;64.75;35.38;;;9.00;99.90;;;;;;4999840;28;20046;-83
2022/05/01 07:25:05;;;;;;;59.42;34.80;;;9.10;99.90;;;;;;5017383;28;20460;-83
2022/05/01 07:27:53;;;;;;;56.83;32.08;;;9.00;99.90;;;;;;5016255;28;20096;-84
2022/05/01 07:30:42;;;;;;;67.50;36.05;;;8.90;99.90;;;;;;5016068;28;20053;-84
2022/05/01 07:33:30;;;;;;;68.97;38.38;;;8.80;99.90;;;;;;5012274;28;20069;-83
2022/05/01 07:36:19;;;;;;;73.20;39.40;;;8.70;99.90;;;;;;5012761;28;20046;-83
2022/05/01 07:39:06;;;;;;;75.97;38.72;;;8.70;99.90;;;;;;5008360;28;20045;-84
2022/05/01 07:41:57;;;;;;;82.30;39.63;;;8.70;99.90;;;;;;5005101;28;20049;-83
2022/05/01 07:44:45;;;;;;;67.75;38.45;;;8.90;99.90;;;;;;5016996;28;20387;-84
2022/05/01 07:47:32;;;;;;;63.63;35.92;;;9.10;99.90;;;;;;4987057;28;20352;-84
2022/05/01 07:50:21;;;;;;;63.25;36.13;;;9.10;99.90;;;;;;5016531;28;20046;-83
2022/05/01 07:53:11;;;;;;;63.30;35.65;;;9.10;99.90;;;;;;5003695;28;20046;-84
2022/05/01 07:56:01;;;;;;;68.13;37.22;;;9.20;99.90;;;;;;5007683;28;20082;-83
2022/05/01 07:58:48;;;;;;;59.17;34.03;;;9.40;99.90;;;;;;5011542;28;20069;-84
2022/05/01 08:01:38;;;;;;;59.58;32.22;;;9.50;99.90;;;;;;5016482;28;20046;-84
2022/05/01 08:04:28;;;;;;;53.88;31.48;;;9.50;99.90;;;;;;4999965;28;20050;-84
2022/05/01 08:07:19;;;;;;;45.33;27.15;;;9.60;99.90;;;;;;5013038;28;20123;-84
2022/05/01 08:10:06;;;;;;;43.63;26.90;;;9.50;99.90;;;;;;4999011;28;20046;-83
2022/05/01 08:12:59;;;;;;;48.38;29.38;;;9.60;99.90;;;;;;5010899;28;20069;-83
2022/05/01 08:15:47;;;;;;;51.75;32.40;;;9.80;99.90;;;;;;4997714;28;20053;-84
2022/05/01 08:21:45;;;;;;;56.45;32.33;;;10.00;99.90;;;;;;5013917;28;20038;-84
2022/05/01 08:24:34;;;;;;;53.85;32.03;;;10.00;99.90;;;;;;5001992;28;20419;-84
2022/05/01 08:27:21;;;;;;;50.35;30.05;;;10.10;99.90;;;;;;4991269;28;20145;-83
2022/05/01 08:30:29;;;;;;;53.38;31.85;;;10.20;99.90;;;;;;5006854;28;20056;-84
2022/05/01 08:37:45;;;;;;;47.80;28.13;;;10.10;99.90;;;;;;4949530;29;20094;-85
2022/05/01 08:44:52;;;;;;;46.00;25.88;;;10.40;99.90;;;;;;4941843;28;20027;-85
2022/05/01 08:47:53;;;;;;;41.78;26.20;;;10.50;99.90;;;;;;5014781;28;20136;-85
2022/05/01 08:51:30;;;;;;;41.58;24.58;;;10.40;99.90;;;;;;5011216;28;20072;-83
2022/05/01 08:54:44;;;;;;;42.08;26.33;;;10.50;99.90;;;;;;4998141;28;20029;-85
2022/05/01 08:57:33;;;;;;;41.00;24.63;;;11.00;99.90;;;;;;5014687;28;20045;-84
2022/05/01 09:25:43;;;;;;;34.45;21.85;;;11.40;99.90;;;;;;4858698;29;20076;-84
2022/05/01 09:28:33;;;;;;;35.78;19.95;;;11.60;99.90;;;;;;4859254;29;20404;-85
2022/05/01 09:32:16;;;;;;;29.27;19.98;;;11.90;99.90;;;;;;4908258;29;20070;-84
2022/05/01 09:35:26;;;;;;;34.67;21.88;;;12.50;99.90;;;;;;4913716;29;20056;-84
2022/05/01 09:46:34;;;;;;;33.72;21.88;;;12.40;99.90;;;;;;4898339;29;20043;-84
2022/05/01 09:49:21;;;;;;;31.00;21.20;;;12.90;99.90;;;;;;5009472;28;20071;-84
2022/05/01 09:52:11;;;;;;;29.42;19.90;;;13.40;99.90;;;;;;4993004;28;20054;-84
2022/05/01 09:55:04;;;;;;;31.00;20.48;;;13.20;99.90;;;;;;5002448;28;20046;-86
2022/05/01 09:58:08;;;;;;;29.35;19.85;;;13.20;99.90;;;;;;4993258;28;20049;-85
2022/05/01 10:00:55;;;;;;;28.48;18.25;;;13.30;99.90;;;;;;5009776;28;20064;-84
2022/05/01 10:03:48;;;;;;;31.83;19.25;;;13.30;99.90;;;;;;5006888;28;20052;-85
2022/05/01 10:06:36;;;;;;;29.40;19.65;;;13.50;99.90;;;;;;4996765;28;20034;-84
2022/05/01 10:09:25;;;;;;;27.13;18.88;;;13.70;99.90;;;;;;5000681;28;20124;-84
2022/05/01 10:12:14;;;;;;;32.08;20.25;;;13.40;99.90;;;;;;4993379;28;20356;-84
2022/05/01 10:15:03;;;;;;;25.42;17.95;;;12.70;99.90;;;;;;5013317;28;20046;-86
2022/05/01 10:17:51;;;;;;;21.48;14.23;;;12.40;99.90;;;;;;5001473;28;20645;-84
2022/05/01 10:20:42;;;;;;;24.48;16.08;;;12.20;99.90;;;;;;5012082;28;20053;-84
2022/05/01 10:28:01;;;;;;;25.08;15.98;;;11.90;99.90;;;;;;4949830;29;20039;-85
2022/05/01 10:34:57;;;;;;;24.25;13.75;;;12.40;99.90;;;;;;5004090;28;20057;-86
2022/05/01 10:38:07;;;;;;;18.77;13.00;;;12.50;99.90;;;;;;5013682;28;20107;-86
2022/05/01 10:41:02;;;;;;;22.20;14.63;;;12.90;99.90;;;;;;4999623;28;20076;-86
2022/05/01 10:43:59;;;;;;;21.48;12.60;;;13.20;99.90;;;;;;5015175;28;20048;-83
2022/05/01 10:46:55;;;;;;;22.55;14.57;;;13.60;99.90;;;;;;4995400;28;20042;-84
2022/05/01 10:49:47;;;;;;;20.65;13.40;;;13.80;99.90;;;;;;5013651;28;20057;-84
2022/05/01 10:53:01;;;;;;;18.55;12.48;;;14.10;98.20;;;;;;5000446;28;20070;-85
2022/05/01 11:11:29;;;;;;;16.55;11.20;;;15.00;89.50;;;;;;5013415;28;19917;-83
2022/05/01 11:14:31;;;;;;;18.95;12.00;;;14.30;90.40;;;;;;4998449;28;20057;-85
2022/05/01 11:17:34;;;;;;;16.45;11.50;;;13.80;91.40;;;;;;5010075;28;20069;-83
2022/05/01 11:33:42;;;;;;;20.25;12.57;;;14.00;98.40;;;;;;5010969;28;20454;-83
2022/05/01 11:36:53;;;;;;;16.60;11.27;;;14.70;97.00;;;;;;5010476;28;20588;-83
2022/05/01 11:39:50;;;;;;;16.33;11.52;;;15.40;95.10;;;;;;4983076;28;20105;-84
2022/05/01 11:42:37;;;;;;;16.83;12.52;;;16.40;95.20;;;;;;4999125;28;20466;-83
2022/05/01 11:45:31;;;;;;;14.55;11.10;;;18.40;90.00;;;;;;5008223;28;20061;-85
2022/05/01 12:04:57;;;;;;;14.30;10.00;;;20.90;53.50;;;;;;5007582;28;20037;-84
2022/05/01 12:11:52;;;;;;;13.05;9.32;;;20.90;57.50;;;;;;5011707;28;20034;-85
2022/05/01 12:14:44;;;;;;;13.82;8.32;;;21.70;51.20;;;;;;5014923;28;20395;-85
2022/05/01 12:17:54;;;;;;;11.77;8.45;;;19.80;54.20;;;;;;5020910;28;20129;-84
2022/05/01 12:24:49;;;;;;;12.45;8.85;;;17.40;59.30;;;;;;5026385;28;20038;-84
2022/05/01 12:27:45;;;;;;;12.00;8.63;;;16.30;63.00;;;;;;5005030;28;20078;-84
2022/05/01 12:40:03;;;;;;;13.18;8.55;;;18.30;60.30;;;;;;4935728;29;20073;-85
2022/05/01 12:45:57;;;;;;;9.85;7.43;;;18.60;62.60;;;;;;4981148;28;20085;-86
2022/05/01 12:48:44;;;;;;;9.98;7.57;;;18.40;62.80;;;;;;5012912;28;20034;-85
2022/05/01 12:51:36;;;;;;;10.65;7.53;;;18.20;64.00;;;;;;5008414;28;20368;-85
2022/05/01 12:54:23;;;;;;;9.25;7.63;;;18.20;65.20;;;;;;5001507;28;20046;-85
2022/05/01 12:57:32;;;;;;;11.00;7.53;;;18.00;66.30;;;;;;5001122;28;20049;-87
2022/05/01 13:00:38;;;;;;;9.80;7.38;;;18.40;62.20;;;;;;5014038;28;20438;-86
2022/05/01 13:03:28;;;;;;;11.35;7.72;;;19.70;60.80;;;;;;5012626;28;20367;-87
2022/05/01 13:06:18;;;;;;;11.98;8.02;;;20.70;52.80;;;;;;5012753;28;20363;-87
2022/05/01 13:09:09;;;;;;;9.82;7.57;;;19.90;57.70;;;;;;5002519;28;20054;-86
2022/05/01 13:12:00;;;;;;;13.65;8.50;;;19.50;56.80;;;;;;5012299;28;20046;-86
2022/05/01 13:14:57;;;;;;;10.55;7.72;;;18.70;56.20;;;;;;5011853;28;20534;-85
2022/05/01 13:18:01;;;;;;;8.85;7.38;;;17.80;59.80;;;;;;5013256;28;20061;-83
2022/05/01 13:20:50;;;;;;;8.00;6.15;;;18.10;60.00;;;;;;5007576;28;20045;-87
2022/05/01 13:23:42;;;;;;;8.35;6.90;;;20.20;59.10;;;;;;5010947;28;20176;-86
2022/05/01 13:26:32;;;;;;;9.40;6.85;;;22.10;54.00;;;;;;5000673;28;20065;-87
2022/05/01 13:29:22;;;;;;;9.05;6.30;;;23.60;48.10;;;;;;5010711;28;20037;-88
2022/05/01 13:32:10;;;;;;;8.63;6.60;;;23.70;46.30;;;;;;5007357;28;20056;-87
2022/05/01 13:35:03;;;;;;;11.05;7.43;;;22.70;47.60;;;;;;5003105;28;20046;-87
2022/05/01 13:37:57;;;;;;;10.55;6.85;;;21.50;50.20;;;;;;4997630;28;20046;-86
2022/05/01 13:46:58;;;;;;;11.02;6.97;;;20.00;55.00;;;;;;5004873;28;20536;-87
2022/05/01 13:49:47;;;;;;;8.35;5.65;;;20.20;59.30;;;;;;5009848;28;20069;-86
2022/05/01 13:52:36;;;;;;;9.18;6.47;;;20.50;57.90;;;;;;5013682;28;20057;-85
2022/05/01 13:55:26;;;;;;;8.68;6.68;;;20.00;57.70;;;;;;5012865;28;20383;-86
2022/05/01 13:58:16;;;;;;;11.20;5.93;;;19.70;59.00;;;;;;4997812;28;20050;-86
2022/05/01 14:01:04;;;;;;;8.38;6.68;;;19.90;60.10;;;;;;5007953;28;20041;-85
2022/05/01 14:03:53;;;;;;;12.07;8.73;;;19.60;58.00;;;;;;5010677;28;20042;-84
2022/05/01 14:06:40;;;;;;;12.05;8.85;;;18.70;59.30;;;;;;5002189;28;20133;-85
2022/05/01 14:09:27;;;;;;;10.77;8.15;;;18.40;62.90;;;;;;5012106;28;20436;-85
2022/05/01 14:12:15;;;;;;;10.15;7.68;;;18.60;62.10;;;;;;4986305;28;20429;-85
2022/05/01 14:15:02;;;;;;;11.98;7.70;;;18.30;63.80;;;;;;5008795;28;20063;-85
2022/05/01 14:17:56;;;;;;;10.65;6.28;;;18.50;66.00;;;;;;5005118;28;20104;-85
2022/05/01 14:20:45;;;;;;;11.63;8.05;;;19.10;63.10;;;;;;5007474;28;20057;-84
2022/05/01 14:23:33;;;;;;;14.77;7.40;;;19.90;62.20;;;;;;4985349;28;20061;-85
2022/05/01 14:26:21;;;;;;;11.30;6.60;;;20.80;59.10;;;;;;5011799;28;20045;-85
2022/05/01 14:29:09;;;;;;;10.40;7.15;;;21.80;57.10;;;;;;5014130;28;20119;-85
2022/05/01 14:31:59;;;;;;;7.85;6.20;;;21.50;53.70;;;;;;5013276;28;20042;-86
2022/05/01 14:34:58;;;;;;;8.27;6.30;;;21.80;53.50;;;;;;5012772;28;20042;-85
2022/05/01 14:37:56;;;;;;;7.85;5.80;;;23.10;50.70;;;;;;5007580;28;20053;-86
2022/05/01 14:40:48;;;;;;;9.00;5.90;;;24.80;46.30;;;;;;4990052;28;20056;-85
2022/05/01 14:43:46;;;;;;;7.28;5.25;;;25.20;43.10;;;;;;5008081;28;20356;-86
2022/05/01 14:46:58;;;;;;;7.38;5.78;;;25.40;43.90;;;;;;5008170;28;20053;-84
2022/05/01 14:49:59;;;;;;;7.50;4.97;;;25.60;41.00;;;;;;5009376;28;20068;-85
2022/05/01 14:52:52;;;;;;;8.05;5.10;;;24.00;43.60;;;;;;5008157;28;20060;-86
2022/05/01 14:55:40;;;;;;;7.28;5.75;;;23.30;44.80;;;;;;5005840;28;20490;-86
2022/05/01 15:07:57;;;;;;;5.65;4.78;;;25.40;41.90;;;;;;5009714;28;20052;-86
2022/05/01 15:10:44;;;;;;;7.43;4.78;;;25.20;41.90;;;;;;4999965;28;20117;-87
2022/05/01 15:13:34;;;;;;;8.05;5.40;;;23.80;44.40;;;;;;5009449;28;20053;-85
2022/05/01 15:16:32;;;;;;;6.18;4.53;;;23.50;47.20;;;;;;5009974;28;20057;-85
2022/05/01 15:19:37;;;;;;;12.05;5.90;;;22.40;49.80;;;;;;5008234;28;20049;-87
2022/05/01 15:22:48;;;;;;;9.70;6.90;;;20.60;51.20;;;;;;5005344;28;20063;-85
2022/05/01 15:25:47;;;;;;;7.43;5.70;;;18.90;56.20;;;;;;5006791;28;20114;-85
2022/05/01 15:28:37;;;;;;;9.15;6.15;;;18.30;58.70;;;;;;5010075;28;20104;-86
2022/05/01 15:31:31;;;;;;;9.95;6.32;;;17.90;59.80;;;;;;4994810;28;20050;-86
2022/05/01 15:34:33;;;;;;;11.10;5.88;;;17.30;61.80;;;;;;5006172;28;20053;-87
2022/05/01 15:37:35;;;;;;;9.55;6.78;;;16.90;63.40;;;;;;4999661;28;20065;-87
2022/05/01 15:40:32;;;;;;;8.40;5.97;;;16.70;64.20;;;;;;5012149;28;20057;-86
2022/05/01 15:43:22;;;;;;;8.93;6.22;;;16.50;66.50;;;;;;5021773;28;20038;-87
2022/05/01 15:46:28;;;;;;;9.05;6.28;;;16.30;67.00;;;;;;5017351;28;20045;-87
2022/05/01 15:55:35;;;;;;;9.15;6.93;;;15.70;70.90;;;;;;5017034;28;20084;-86
2022/05/01 15:58:24;;;;;;;8.40;7.30;;;15.40;72.00;;;;;;5009224;28;20058;-86
2022/05/01 16:01:11;;;;;;;12.85;7.57;;;15.20;74.70;;;;;;5014509;28;20081;-87
2022/05/01 16:04:00;;;;;;;10.02;7.97;;;15.00;74.90;;;;;;5026070;28;20068;-86
2022/05/01 16:06:53;;;;;;;10.75;8.05;;;15.00;76.90;;;;;;5020950;28;20046;-85
2022/05/01 16:10:00;;;;;;;12.57;7.07;;;14.80;75.20;;;;;;5011095;28;20056;-86
2022/05/01 16:12:57;;;;;;;11.45;8.13;;;14.80;74.60;;;;;;5008859;28;20153;-85
2022/05/01 16:15:56;;;;;;;9.48;7.18;;;14.80;75.40;;;;;;5016128;28;20049;-86
2022/05/01 16:19:33;;;;;;;11.07;8.38;;;14.80;79.10;;;;;;5010655;28;20100;-84
2022/05/01 16:22:50;;;;;;;13.65;9.98;;;14.70;83.30;;;;;;5013558;28;20046;-84
2022/05/01 16:25:38;;;;;;;13.00;8.90;;;14.80;85.90;;;;;;5011244;28;20068;-85
2022/05/01 16:28:29;;;;;;;14.93;9.27;;;15.20;85.90;;;;;;5015025;28;20053;-85
2022/05/01 16:31:25;;;;;;;11.75;9.15;;;15.20;85.00;;;;;;4999073;28;20108;-84
2022/05/01 16:34:31;;;;;;;11.90;8.82;;;15.40;82.60;;;;;;5010079;28;20359;-85
2022/05/01 16:37:24;;;;;;;15.20;8.88;;;15.40;80.70;;;;;;5006526;28;20131;-86
2022/05/01 16:40:14;;;;;;;15.13;10.15;;;15.50;81.40;;;;;;5011329;28;20038;-86
2022/05/01 16:43:06;;;;;;;13.20;8.85;;;15.40;80.50;;;;;;5022574;28;20046;-86
2022/05/01 16:46:01;;;;;;;18.20;9.20;;;15.30;78.80;;;;;;5003835;28;20371;-85
2022/05/01 16:48:49;;;;;;;10.95;8.40;;;15.10;82.50;;;;;;5015411;28;20459;-85
2022/05/01 16:51:39;;;;;;;15.18;10.25;;;15.00;82.50;;;;;;5014574;28;20038;-86
2022/05/01 16:54:29;;;;;;;14.90;8.85;;;14.80;83.20;;;;;;5008091;28;20050;-86
2022/05/01 16:57:20;;;;;;;15.77;9.82;;;14.70;84.90;;;;;;5007376;28;20064;-85
2022/05/01 17:00:13;;;;;;;11.32;8.35;;;14.40;86.00;;;;;;5014181;28;20115;-86
2022/05/01 17:03:32;;;;;;;11.32;9.18;;;14.40;83.90;;;;;;5007500;28;20053;-86
2022/05/01 17:06:29;;;;;;;14.40;9.52;;;14.30;88.40;;;;;;5012923;28;20046;-86
2022/05/01 17:09:51;;;;;;;11.90;9.32;;;14.20;87.50;;;;;;5014847;28;20131;-83
2022/05/01 17:12:53;;;;;;;16.48;9.90;;;14.10;89.90;;;;;;5014348;28;20459;-86
2022/05/01 17:15:43;;;;;;;11.98;9.25;;;14.00;89.80;;;;;;5013372;28;20420;-85
2022/05/01 17:18:57;;;;;;;11.82;9.27;;;14.00;90.50;;;;;;5003085;28;20400;-85
2022/05/01 17:22:01;;;;;;;14.15;10.05;;;13.80;91.80;;;;;;4995039;28;20136;-85